createdAt,value
2022-09-24T00:02:59.609Z,980.5
2022-09-24T00:17:24.622Z,980.4
2022-09-24T00:31:54.791Z,980.4
2022-09-24T00:46:24.517Z,980.3
2022-09-24T01:00:54.588Z,980.2
2022-09-24T01:15:23.164Z,980.2
2022-09-24T01:29:53.492Z,980
2022-09-24T01:44:24.447Z,979.9
2022-09-24T01:58:54.541Z,979.8
2022-09-24T02:13:24.587Z,979.7
2022-09-24T02:27:53.911Z,979.7
2022-09-24T02:42:27.170Z,979.6
2022-09-24T02:56:56.077Z,979.5
2022-09-24T03:11:26.803Z,979.5
2022-09-24T03:25:59.363Z,979.3
2022-09-24T03:40:27.406Z,979.4
2022-09-24T03:54:57.604Z,979.2
2022-09-24T04:09:34.464Z,979.4
2022-09-24T04:24:02.120Z,979.3
2022-09-24T04:38:32.049Z,979.3
2022-09-24T04:53:03.256Z,979.2
2022-09-24T05:07:34.151Z,979.2
2022-09-24T05:22:04.315Z,979.1
2022-09-24T05:36:35.015Z,979
2022-09-24T05:51:05.338Z,979
2022-09-24T06:05:36.872Z,979.1
2022-09-24T06:20:06.551Z,979.2
2022-09-24T06:34:38.096Z,979.1
2022-09-24T06:49:08.824Z,979.3
2022-09-24T07:03:40.309Z,979.4
2022-09-24T07:18:10.158Z,979.5
2022-09-24T07:32:40.912Z,979.5
2022-09-24T07:47:15.975Z,979.5
2022-09-24T08:01:45.552Z,979.6
2022-09-24T08:16:15.196Z,979.7
2022-09-24T08:30:47.229Z,979.7
2022-09-24T08:45:19.953Z,979.7
2022-09-24T08:59:51.913Z,979.7
2022-09-24T09:14:31.864Z,979.7
2022-09-24T09:28:59.831Z,979.6
2022-09-24T09:43:30.689Z,979.6
2022-09-24T09:58:01.663Z,979.6
2022-09-24T10:12:34.187Z,979.6
2022-09-24T10:27:11.541Z,979.5
2022-09-24T10:41:43.599Z,979.4
2022-09-24T10:56:11.855Z,979.5
2022-09-24T11:10:42.997Z,979.5
2022-09-24T11:25:10.845Z,979.4
2022-09-24T11:39:41.270Z,979.3
2022-09-24T11:54:16.415Z,979.3
2022-09-24T12:08:48.614Z,979.1
2022-09-24T12:23:15.089Z,979.1
2022-09-24T12:37:44.810Z,979.1
2022-09-24T12:52:15.609Z,979.1
2022-09-24T13:06:49.439Z,979.2
2022-09-24T13:21:15.506Z,979.1
2022-09-24T13:35:46.230Z,979.1
2022-09-24T13:50:03.126Z,979.2
2022-09-24T14:04:34.870Z,979.2
2022-09-24T14:19:03.247Z,979.1
2022-09-24T14:33:34.360Z,979.1
2022-09-24T14:48:08.960Z,979.1
2022-09-24T15:02:41.532Z,979
2022-09-24T15:17:07.137Z,979
2022-09-24T15:31:37.421Z,979.1
2022-09-24T15:46:08.328Z,979.1
2022-09-24T16:00:38.630Z,979.1
2022-09-24T16:15:08.034Z,979.1
2022-09-24T16:29:36.244Z,979.2
2022-09-24T16:44:06.075Z,979.3
2022-09-24T16:58:35.760Z,979.3
2022-09-24T17:13:06.339Z,979.5
2022-09-24T17:27:36.557Z,979.4
2022-09-24T17:42:07.581Z,979.4
2022-09-24T17:56:38.295Z,979.5
2022-09-24T18:11:06.888Z,979.5
2022-09-24T18:25:36.367Z,979.6
2022-09-24T18:40:00.551Z,979.7
2022-09-24T18:54:28.957Z,979.8
2022-09-24T19:08:59.945Z,979.7
2022-09-24T19:23:30.092Z,979.8
2022-09-24T19:38:00.928Z,979.8
2022-09-24T19:52:31.068Z,979.8
2022-09-24T20:07:06.439Z,979.9
2022-09-24T20:21:39.143Z,979.8
2022-09-24T20:36:24.595Z,979.8
2022-09-24T20:50:43.810Z,979.9
2022-09-24T21:05:13.500Z,979.9
2022-09-24T21:19:44.154Z,979.9
2022-09-24T21:34:14.913Z,980
2022-09-24T21:48:44.766Z,980
2022-09-24T22:03:14.440Z,980
2022-09-24T22:17:44.605Z,980
2022-09-24T22:32:14.650Z,980
2022-09-24T22:46:46.114Z,979.9
2022-09-24T23:01:15.783Z,980
2022-09-24T23:15:43.686Z,980
2022-09-24T23:30:15.269Z,979.9
2022-09-24T23:44:46.211Z,979.9
2022-09-24T23:59:15.639Z,980
